createdAt,value
2022-08-08T00:00:50.146Z,99.90
2022-08-08T00:02:57.970Z,99.90
2022-08-08T00:06:03.032Z,99.90
2022-08-08T00:08:36.870Z,99.90
2022-08-08T00:11:14.824Z,99.90
2022-08-08T00:14:17.640Z,99.90
2022-08-08T00:16:50.313Z,99.90
2022-08-08T00:19:35.611Z,99.90
2022-08-08T00:22:06.325Z,99.90
2022-08-08T00:24:41.312Z,99.90
2022-08-08T00:27:09.737Z,99.90
2022-08-08T00:29:47.100Z,99.90
2022-08-08T00:32:34.892Z,99.90
2022-08-08T00:35:32.694Z,99.90
2022-08-08T00:38:16.782Z,99.90
2022-08-08T00:41:22.461Z,99.90
2022-08-08T00:44:28.421Z,99.90
2022-08-08T00:47:14.251Z,99.90
2022-08-08T00:50:05.969Z,99.90
2022-08-08T00:52:40.023Z,99.90
2022-08-08T00:55:22.068Z,99.90
2022-08-08T00:58:30.733Z,99.90
2022-08-08T01:01:14.512Z,99.90
2022-08-08T01:04:20.463Z,99.90
2022-08-08T01:07:16.229Z,99.90
2022-08-08T01:10:18.472Z,99.90
2022-08-08T01:12:49.562Z,99.90
2022-08-08T01:15:44.236Z,99.90
2022-08-08T01:18:53.135Z,99.90
2022-08-08T01:21:35.166Z,99.90
2022-08-08T01:24:21.633Z,99.90
2022-08-08T01:26:55.841Z,99.90
2022-08-08T01:29:58.621Z,99.90
2022-08-08T01:32:45.335Z,99.90
2022-08-08T01:35:29.686Z,99.90
2022-08-08T01:38:19.588Z,99.90
2022-08-08T01:41:23.799Z,99.90
2022-08-08T01:44:17.604Z,99.90
2022-08-08T01:48:14.799Z,99.90
2022-08-08T01:50:17.155Z,99.90
2022-08-08T01:55:15.793Z,99.90
2022-08-08T01:56:42.281Z,99.90
2022-08-08T01:59:12.802Z,99.90
2022-08-08T02:02:00.409Z,99.90
2022-08-08T02:04:35.217Z,99.90
2022-08-08T02:07:23.559Z,99.90
2022-08-08T02:10:29.352Z,99.90
2022-08-08T02:13:03.023Z,99.90
2022-08-08T02:15:39.042Z,99.90
2022-08-08T02:18:18.239Z,99.90
2022-08-08T02:21:20.434Z,99.90
2022-08-08T02:23:58.106Z,99.90
2022-08-08T02:26:37.503Z,99.90
2022-08-08T02:29:23.713Z,99.90
2022-08-08T02:32:07.186Z,99.90
2022-08-08T02:35:07.415Z,99.90
2022-08-08T02:37:51.912Z,99.90
2022-08-08T02:40:57.016Z,99.90
2022-08-08T02:44:42.463Z,99.90
2022-08-08T02:46:35.222Z,99.90
2022-08-08T02:49:47.760Z,99.90
2022-08-08T02:52:50.982Z,99.90
2022-08-08T02:56:03.118Z,99.90
2022-08-08T02:59:17.449Z,99.90
2022-08-08T03:02:36.865Z,99.90
2022-08-08T03:05:10.994Z,99.90
2022-08-08T03:08:08.811Z,99.90
2022-08-08T03:11:02.132Z,99.90
2022-08-08T03:16:01.025Z,99.90
2022-08-08T03:16:37.479Z,99.90
2022-08-08T03:19:54.805Z,99.90
2022-08-08T03:22:38.302Z,99.90
2022-08-08T03:25:17.834Z,99.90
2022-08-08T03:27:59.452Z,99.90
2022-08-08T03:30:32.212Z,99.90
2022-08-08T03:33:55.619Z,99.90
2022-08-08T03:36:10.242Z,99.90
2022-08-08T03:38:57.942Z,99.90
2022-08-08T03:42:27.863Z,99.90
2022-08-08T03:44:25.656Z,99.90
2022-08-08T03:46:54.575Z,99.90
2022-08-08T03:49:57.184Z,99.90
2022-08-08T03:52:15.156Z,99.90
2022-08-08T03:55:01.539Z,99.90
2022-08-08T03:58:32.414Z,99.90
2022-08-08T04:00:21.638Z,99.90
2022-08-08T04:03:03.905Z,99.90
2022-08-08T04:05:35.066Z,99.90
2022-08-08T04:08:08.029Z,99.90
2022-08-08T04:10:36.202Z,99.90
2022-08-08T04:13:18.095Z,99.90
2022-08-08T04:15:54.809Z,99.90
2022-08-08T04:18:42.206Z,99.90
2022-08-08T04:21:13.406Z,99.90
2022-08-08T04:24:05.745Z,99.90
2022-08-08T04:26:40.146Z,99.90
2022-08-08T04:29:18.501Z,99.90
2022-08-08T04:31:59.273Z,99.90
2022-08-08T04:34:32.338Z,99.90
2022-08-08T04:37:16.719Z,99.90
2022-08-08T04:40:03.378Z,99.90
2022-08-08T04:42:36.682Z,99.90
2022-08-08T04:45:05.678Z,99.90
2022-08-08T04:47:36.422Z,99.90
2022-08-08T04:50:14.309Z,99.90
2022-08-08T04:52:58.893Z,99.90
2022-08-08T04:55:47.504Z,99.90
2022-08-08T04:58:20.808Z,99.90
2022-08-08T05:00:51.508Z,99.90
2022-08-08T05:04:09.154Z,99.90
2022-08-08T05:06:12.596Z,99.90
2022-08-08T05:08:46.155Z,99.90
2022-08-08T05:11:24.276Z,99.90
2022-08-08T05:13:58.697Z,99.90
2022-08-08T05:16:52.614Z,99.90
2022-08-08T05:20:10.148Z,99.90
2022-08-08T05:22:08.159Z,99.90
2022-08-08T05:24:37.700Z,99.90
2022-08-08T05:27:06.206Z,99.90
2022-08-08T05:29:36.977Z,99.90
2022-08-08T05:32:08.174Z,99.90
2022-08-08T05:34:40.869Z,99.90
2022-08-08T05:37:17.067Z,99.90
2022-08-08T05:39:50.770Z,99.90
2022-08-08T05:42:19.448Z,99.90
2022-08-08T05:44:52.885Z,99.90
2022-08-08T05:47:22.022Z,99.90
2022-08-08T05:49:54.001Z,99.90
2022-08-08T05:52:33.912Z,99.90
2022-08-08T05:55:09.943Z,99.90
2022-08-08T05:58:04.337Z,99.90
2022-08-08T06:00:30.688Z,99.90
2022-08-08T06:03:17.182Z,99.90
2022-08-08T06:06:06.384Z,99.90
2022-08-08T06:08:37.922Z,99.90
2022-08-08T06:11:09.602Z,99.90
2022-08-08T06:13:47.803Z,99.90
2022-08-08T06:16:27.524Z,99.90
2022-08-08T06:19:12.226Z,99.90
2022-08-08T06:21:56.723Z,99.90
2022-08-08T06:24:35.923Z,99.90
2022-08-08T06:27:05.958Z,99.90
2022-08-08T06:29:59.236Z,99.90
2022-08-08T06:32:30.169Z,99.90
2022-08-08T06:36:04.442Z,99.90
2022-08-08T06:38:01.631Z,99.90
2022-08-08T06:40:32.434Z,99.90
2022-08-08T06:43:09.562Z,99.90
2022-08-08T06:45:52.080Z,99.90
2022-08-08T06:48:21.667Z,99.90
2022-08-08T06:50:55.593Z,99.90
2022-08-08T06:53:23.402Z,99.90
2022-08-08T06:56:02.087Z,99.90
2022-08-08T06:58:33.339Z,99.90
2022-08-08T07:01:11.562Z,99.90
2022-08-08T07:04:38.614Z,99.90
2022-08-08T07:06:44.945Z,99.90
2022-08-08T07:09:20.902Z,99.90
2022-08-08T07:11:51.599Z,99.90
2022-08-08T07:14:40.552Z,99.90
2022-08-08T07:17:23.241Z,99.90
2022-08-08T07:20:04.774Z,99.90
2022-08-08T07:22:42.481Z,99.90
2022-08-08T07:25:10.336Z,99.90
2022-08-08T07:28:00.807Z,99.90
2022-08-08T07:30:31.060Z,99.90
2022-08-08T07:32:59.678Z,99.90
2022-08-08T07:35:29.052Z,99.90
2022-08-08T07:38:09.727Z,99.90
2022-08-08T07:40:46.603Z,99.90
2022-08-08T07:43:15.658Z,99.90
2022-08-08T07:45:51.468Z,99.90
2022-08-08T07:48:38.088Z,99.90
2022-08-08T07:51:05.587Z,99.90
2022-08-08T07:54:00.935Z,99.90
2022-08-08T07:56:41.899Z,99.90
2022-08-08T07:59:14.801Z,99.90
2022-08-08T08:02:35.301Z,99.90
2022-08-08T08:04:44.179Z,99.90
2022-08-08T08:07:15.951Z,99.90
2022-08-08T08:09:43.220Z,99.90
2022-08-08T08:12:35.085Z,99.90
2022-08-08T08:15:07.001Z,99.90
2022-08-08T08:17:47.857Z,99.90
2022-08-08T08:20:19.251Z,99.90
2022-08-08T08:22:48.418Z,99.90
2022-08-08T08:25:32.937Z,99.90
2022-08-08T08:28:04.318Z,99.90
2022-08-08T08:30:38.083Z,99.90
2022-08-08T08:33:05.846Z,99.90
2022-08-08T08:36:19.098Z,99.90
2022-08-08T08:38:26.973Z,99.90
2022-08-08T08:40:59.422Z,99.90
2022-08-08T08:43:29.161Z,99.90
2022-08-08T08:46:03.539Z,99.90
2022-08-08T08:48:33.472Z,99.90
2022-08-08T08:51:02.175Z,99.90
2022-08-08T08:53:56.348Z,99.90
2022-08-08T08:56:27.695Z,99.90
2022-08-08T08:59:03.979Z,99.90
2022-08-08T09:01:37.553Z,99.90
2022-08-08T09:04:31.109Z,99.90
2022-08-08T09:07:00.210Z,99.90
2022-08-08T09:09:39.973Z,99.90
2022-08-08T09:12:19.921Z,99.90
2022-08-08T09:14:48.674Z,99.90
2022-08-08T09:17:23.617Z,99.90
2022-08-08T09:21:58.984Z,99.90
2022-08-08T09:22:47.259Z,99.90
2022-08-08T09:25:15.066Z,99.90
2022-08-08T09:27:57.953Z,99.90
2022-08-08T09:30:29.611Z,99.90
2022-08-08T09:33:13.148Z,99.90
2022-08-08T09:35:49.974Z,99.90
2022-08-08T09:38:54.194Z,99.80
2022-08-08T09:42:13.960Z,99.90
2022-08-08T09:44:36.557Z,99.60
2022-08-08T09:47:26.589Z,98.40
2022-08-08T09:50:03.284Z,97.80
2022-08-08T09:52:59.360Z,98.30
2022-08-08T09:55:51.888Z,97.70
2022-08-08T09:58:20.276Z,97.00
2022-08-08T10:00:57.400Z,97.20
2022-08-08T10:03:25.217Z,97.80
2022-08-08T10:05:53.894Z,97.10
2022-08-08T10:08:21.358Z,96.90
2022-08-08T10:10:51.268Z,97.90
2022-08-08T10:13:35.846Z,97.40
2022-08-08T10:16:05.879Z,97.20
2022-08-08T10:18:34.579Z,96.80
2022-08-08T10:21:24.904Z,96.60
2022-08-08T10:23:58.485Z,96.40
2022-08-08T10:26:58.643Z,96.30
2022-08-08T10:29:59.815Z,97.30
2022-08-08T10:32:48.457Z,98.70
2022-08-08T10:36:07.727Z,97.30
2022-08-08T10:38:07.940Z,96.90
2022-08-08T10:40:37.708Z,96.90
2022-08-08T10:43:05.824Z,97.10
2022-08-08T10:45:43.193Z,97.30
2022-08-08T10:48:57.849Z,98.50
2022-08-08T10:51:31.232Z,97.10
2022-08-08T10:54:07.874Z,97.30
2022-08-08T10:56:35.733Z,98.40
2022-08-08T10:59:07.936Z,98.50
2022-08-08T11:01:36.856Z,97.60
2022-08-08T11:04:08.049Z,97.80
2022-08-08T11:06:41.329Z,97.00
2022-08-08T11:09:19.757Z,97.90
2022-08-08T11:12:05.132Z,97.30
2022-08-08T11:14:49.579Z,99.10
2022-08-08T11:18:00.363Z,97.20
2022-08-08T11:20:13.104Z,96.90
2022-08-08T11:22:41.081Z,97.00
2022-08-08T11:25:14.195Z,96.20
2022-08-08T11:27:44.536Z,95.70
2022-08-08T11:30:24.084Z,96.30
2022-08-08T11:32:53.882Z,95.90
2022-08-08T11:35:25.945Z,95.80
2022-08-08T11:38:35.355Z,96.60
2022-08-08T11:40:51.857Z,95.70
2022-08-08T11:43:21.715Z,95.30
2022-08-08T11:46:17.336Z,95.10
2022-08-08T11:48:39.335Z,94.90
2022-08-08T11:51:39.571Z,95.20
2022-08-08T11:53:59.021Z,95.50
2022-08-08T11:56:34.468Z,94.80
2022-08-08T11:59:11.785Z,94.20
2022-08-08T12:01:39.208Z,94.30
2022-08-08T12:04:07.884Z,94.60
2022-08-08T12:06:35.237Z,93.70
2022-08-08T12:09:07.287Z,94.30
2022-08-08T12:11:39.786Z,93.90
2022-08-08T12:14:07.738Z,94.00
2022-08-08T12:16:48.923Z,93.70
2022-08-08T12:19:22.095Z,94.50
2022-08-08T12:22:09.369Z,94.00
2022-08-08T12:24:48.426Z,94.10
2022-08-08T12:27:21.363Z,94.40
2022-08-08T12:29:58.980Z,94.30
2022-08-08T12:32:27.521Z,94.20
2022-08-08T12:35:13.262Z,94.20
2022-08-08T12:37:48.102Z,94.60
2022-08-08T12:40:58.467Z,94.00
2022-08-08T12:43:31.966Z,93.90
2022-08-08T12:46:02.752Z,92.60
2022-08-08T12:48:36.448Z,92.60
2022-08-08T12:51:05.430Z,93.20
2022-08-08T12:53:42.268Z,93.20
2022-08-08T12:56:19.012Z,92.90
2022-08-08T12:58:54.305Z,92.70
2022-08-08T13:01:36.851Z,92.80
2022-08-08T13:04:24.592Z,93.20
2022-08-08T13:06:54.569Z,93.40
2022-08-08T13:10:00.478Z,93.70
2022-08-08T13:12:29.422Z,93.90
2022-08-08T13:14:57.255Z,93.90
2022-08-08T13:17:54.842Z,94.20
2022-08-08T13:20:19.759Z,94.00
2022-08-08T13:22:47.458Z,93.20
2022-08-08T13:25:16.025Z,92.30
2022-08-08T13:27:44.203Z,93.30
2022-08-08T13:30:20.903Z,92.80
2022-08-08T13:32:57.463Z,92.90
2022-08-08T13:35:38.212Z,92.70
2022-08-08T13:38:08.310Z,92.50
2022-08-08T13:40:41.128Z,92.40
2022-08-08T13:43:08.860Z,92.40
2022-08-08T13:45:36.861Z,91.90
2022-08-08T13:48:08.513Z,91.70
2022-08-08T13:50:50.368Z,92.10
2022-08-08T13:53:27.974Z,91.50
2022-08-08T13:56:05.187Z,91.70
2022-08-08T13:58:33.070Z,90.80
2022-08-08T14:01:17.328Z,91.00
2022-08-08T14:03:54.966Z,91.10
2022-08-08T14:06:33.052Z,90.50
2022-08-08T14:09:18.395Z,90.30
2022-08-08T14:11:48.594Z,90.40
2022-08-08T14:14:21.182Z,90.80
2022-08-08T14:16:53.728Z,90.90
2022-08-08T14:19:58.102Z,90.40
2022-08-08T14:22:19.995Z,89.80
2022-08-08T14:24:48.786Z,90.30
2022-08-08T14:27:30.595Z,90.10
2022-08-08T14:30:18.038Z,89.90
2022-08-08T14:32:46.791Z,90.90
2022-08-08T14:35:35.655Z,89.20
2022-08-08T14:38:34.039Z,89.10
2022-08-08T14:40:59.054Z,88.80
2022-08-08T14:44:02.094Z,88.60
2022-08-08T14:46:22.304Z,87.90
2022-08-08T14:49:20.033Z,89.00
2022-08-08T14:51:53.547Z,90.20
2022-08-08T14:54:28.753Z,89.40
2022-08-08T14:56:57.960Z,88.70
2022-08-08T14:59:43.896Z,88.60
2022-08-08T15:02:15.243Z,88.50
2022-08-08T15:04:43.477Z,87.40
2022-08-08T15:07:21.441Z,88.20
2022-08-08T15:09:50.444Z,90.40
2022-08-08T15:12:27.281Z,88.30
2022-08-08T15:14:55.693Z,89.50
2022-08-08T15:17:23.355Z,88.00
2022-08-08T15:19:51.669Z,88.60
2022-08-08T15:22:23.637Z,89.80
2022-08-08T15:24:51.713Z,90.30
2022-08-08T15:27:57.797Z,90.00
2022-08-08T15:30:12.216Z,89.70
2022-08-08T15:32:40.826Z,90.00
2022-08-08T15:35:10.603Z,89.80
2022-08-08T15:37:38.522Z,89.40
2022-08-08T15:40:07.325Z,89.00
2022-08-08T15:42:41.443Z,88.80
2022-08-08T15:45:10.803Z,90.00
2022-08-08T15:47:38.088Z,90.60
2022-08-08T15:50:10.529Z,90.60
2022-08-08T15:52:47.091Z,91.10
2022-08-08T15:55:14.319Z,91.20
2022-08-08T15:57:41.626Z,90.80
2022-08-08T16:00:26.415Z,91.30
2022-08-08T16:02:57.849Z,91.10
2022-08-08T16:05:35.399Z,91.30
2022-08-08T16:08:13.284Z,91.90
2022-08-08T16:13:09.456Z,91.90
2022-08-08T16:13:34.594Z,91.70
2022-08-08T16:16:17.882Z,92.30
2022-08-08T16:18:57.038Z,91.40
2022-08-08T16:21:31.571Z,92.20
2022-08-08T16:24:07.043Z,91.60
2022-08-08T16:26:38.955Z,91.30
2022-08-08T16:29:17.857Z,91.30
2022-08-08T16:31:51.334Z,91.60
2022-08-08T16:34:19.775Z,91.20
2022-08-08T16:36:50.264Z,90.50
2022-08-08T16:39:59.745Z,91.20
2022-08-08T16:42:05.936Z,90.90
2022-08-08T16:44:33.609Z,90.10
2022-08-08T16:47:40.608Z,90.80
2022-08-08T16:50:13.726Z,89.70
2022-08-08T16:55:01.829Z,90.00
2022-08-08T16:55:55.693Z,89.50
2022-08-08T16:58:20.626Z,89.90
2022-08-08T17:00:49.145Z,90.30
2022-08-08T17:03:25.476Z,90.00
2022-08-08T17:06:35.584Z,90.20
2022-08-08T17:08:54.795Z,90.40
2022-08-08T17:11:22.004Z,90.50
2022-08-08T17:14:01.186Z,90.20
2022-08-08T17:16:29.550Z,90.80
2022-08-08T17:18:58.418Z,91.00
2022-08-08T17:21:41.367Z,89.80
2022-08-08T17:24:19.446Z,90.60
2022-08-08T17:26:54.731Z,90.20
2022-08-08T17:29:25.700Z,90.10
2022-08-08T17:31:53.244Z,90.40
2022-08-08T17:34:37.233Z,90.60
2022-08-08T17:37:11.122Z,90.70
2022-08-08T17:40:04.826Z,90.90
2022-08-08T17:42:28.257Z,90.60
2022-08-08T17:44:58.025Z,90.90
2022-08-08T17:47:28.119Z,91.10
2022-08-08T17:50:06.016Z,91.30
2022-08-08T17:52:34.365Z,90.70
2022-08-08T17:55:05.226Z,91.20
2022-08-08T17:57:50.819Z,91.70
2022-08-08T18:00:25.830Z,91.80
2022-08-08T18:03:08.329Z,92.00
2022-08-08T18:05:48.588Z,92.00
2022-08-08T18:08:25.227Z,92.00
2022-08-08T18:11:07.882Z,92.50
2022-08-08T18:13:41.969Z,92.40
2022-08-08T18:16:11.023Z,92.40
2022-08-08T18:18:42.753Z,92.60
2022-08-08T18:21:34.400Z,92.80
2022-08-08T18:24:13.649Z,93.10
2022-08-08T18:26:53.646Z,93.20
2022-08-08T18:29:33.390Z,93.30
2022-08-08T18:32:03.875Z,94.10
2022-08-08T18:34:32.878Z,94.30
2022-08-08T18:37:08.579Z,94.00
2022-08-08T18:39:41.385Z,94.60
2022-08-08T18:42:14.363Z,93.90
2022-08-08T18:44:55.132Z,93.70
2022-08-08T18:47:27.282Z,94.90
2022-08-08T18:49:58.678Z,94.90
2022-08-08T18:52:29.935Z,95.50
2022-08-08T18:55:00.934Z,95.70
2022-08-08T18:57:40.996Z,95.50
2022-08-08T19:00:20.813Z,95.60
2022-08-08T19:02:55.245Z,96.30
2022-08-08T19:05:31.987Z,96.80
2022-08-08T19:08:08.667Z,96.90
2022-08-08T19:10:36.843Z,96.90
2022-08-08T19:13:20.969Z,97.30
2022-08-08T19:15:51.891Z,98.10
2022-08-08T19:18:31.141Z,98.40
2022-08-08T19:21:29.627Z,98.60
2022-08-08T19:23:54.173Z,98.50
2022-08-08T19:26:30.560Z,98.40
2022-08-08T19:29:01.433Z,98.80
2022-08-08T19:31:31.878Z,98.90
2022-08-08T19:34:36.253Z,99.40
2022-08-08T19:36:55.463Z,99.70
2022-08-08T19:39:30.867Z,99.70
2022-08-08T19:42:04.412Z,99.60
2022-08-08T19:44:45.741Z,99.90
2022-08-08T19:47:14.565Z,99.90
2022-08-08T19:49:43.394Z,99.90
2022-08-08T19:52:35.084Z,99.90
2022-08-08T19:55:13.075Z,99.90
2022-08-08T19:57:43.339Z,99.90
2022-08-08T20:00:29.094Z,99.90
2022-08-08T20:02:59.180Z,99.90
2022-08-08T20:06:13.929Z,99.90
2022-08-08T20:08:30.196Z,99.90
2022-08-08T20:11:01.194Z,99.90
2022-08-08T20:14:12.808Z,99.90
2022-08-08T20:16:17.513Z,99.90
2022-08-08T20:18:52.777Z,99.90
2022-08-08T20:21:24.954Z,99.90
2022-08-08T20:23:57.434Z,99.90
2022-08-08T20:26:27.501Z,99.90
2022-08-08T20:28:58.013Z,99.90
2022-08-08T20:31:47.080Z,99.90
2022-08-08T20:34:30.342Z,99.90
2022-08-08T20:37:03.212Z,99.90
2022-08-08T20:39:39.742Z,99.90
2022-08-08T20:42:28.704Z,99.90
2022-08-08T20:44:56.995Z,99.90
2022-08-08T20:47:36.496Z,99.90
2022-08-08T20:50:09.893Z,99.90
2022-08-08T20:52:37.586Z,99.90
2022-08-08T20:55:07.705Z,99.90
2022-08-08T20:57:47.686Z,99.90
2022-08-08T21:00:18.701Z,99.90
2022-08-08T21:02:52.565Z,99.90
2022-08-08T21:05:20.550Z,99.90
2022-08-08T21:08:36.653Z,99.90
2022-08-08T21:10:39.450Z,99.90
2022-08-08T21:13:08.785Z,99.90
2022-08-08T21:16:05.295Z,99.90
2022-08-08T21:18:24.745Z,99.90
2022-08-08T21:20:55.328Z,99.90
2022-08-08T21:24:02.612Z,99.90
2022-08-08T21:26:10.239Z,99.90
2022-08-08T21:28:38.532Z,99.90
2022-08-08T21:31:22.742Z,99.90
2022-08-08T21:33:52.306Z,99.90
2022-08-08T21:36:21.404Z,99.90
2022-08-08T21:38:56.823Z,99.90
2022-08-08T21:41:38.054Z,99.90
2022-08-08T21:44:11.088Z,99.90
2022-08-08T21:48:06.371Z,99.90
2022-08-08T21:49:28.159Z,99.90
2022-08-08T21:54:18.817Z,99.90
2022-08-08T21:55:03.533Z,99.90
2022-08-08T21:57:42.709Z,99.90
2022-08-08T22:00:12.321Z,99.90
2022-08-08T22:02:42.627Z,99.90
2022-08-08T22:05:11.892Z,99.90
2022-08-08T22:07:44.029Z,99.90
2022-08-08T22:10:18.341Z,99.90
2022-08-08T22:13:00.567Z,99.90
2022-08-08T22:15:59.487Z,99.90
2022-08-08T22:18:33.255Z,99.90
2022-08-08T22:21:14.032Z,99.90
2022-08-08T22:23:50.636Z,99.90
2022-08-08T22:26:29.727Z,99.90
2022-08-08T22:29:13.295Z,99.90
2022-08-08T22:32:01.431Z,99.90
2022-08-08T22:34:31.629Z,99.90
2022-08-08T22:36:59.588Z,99.90
2022-08-08T22:39:45.819Z,99.90
2022-08-08T22:42:14.284Z,99.90
2022-08-08T22:44:51.672Z,99.90
2022-08-08T22:47:19.521Z,99.90
2022-08-08T22:49:54.040Z,99.90
2022-08-08T22:52:33.340Z,99.90
2022-08-08T22:55:04.683Z,99.90
2022-08-08T22:57:44.360Z,99.90
2022-08-08T23:00:17.008Z,99.90
2022-08-08T23:02:50.440Z,99.90
2022-08-08T23:05:21.525Z,99.90
2022-08-08T23:07:57.207Z,99.90
2022-08-08T23:10:26.913Z,99.90
2022-08-08T23:12:55.175Z,99.90
2022-08-08T23:16:39.866Z,99.90
2022-08-08T23:18:11.613Z,99.90
2022-08-08T23:20:40.744Z,99.90
2022-08-08T23:23:08.143Z,99.90
2022-08-08T23:25:48.186Z,99.90
2022-08-08T23:28:18.023Z,99.90
2022-08-08T23:30:46.967Z,99.90
2022-08-08T23:33:21.113Z,99.90
2022-08-08T23:36:07.798Z,99.90
2022-08-08T23:38:41.829Z,99.90
2022-08-08T23:41:22.748Z,99.90
2022-08-08T23:43:56.413Z,99.90
2022-08-08T23:49:04.182Z,99.90
2022-08-08T23:49:18.472Z,99.90
2022-08-08T23:52:06.194Z,99.90
2022-08-08T23:54:42.087Z,99.90
2022-08-08T23:57:26.319Z,99.90
